Flight Track Log - Related Links

Times and Time Zones

All times are in EDT time to prevent confusion due to time zone crossing. See the EJA839 flight status page for this flight to view local times or setup timezone preferences in your user account.

Time Position Orientation Groundspeed Altitude Reporting Facility
EDT Latitude Longitude Course Direction KTS MPH feet Rate Location/Type
Fri 08:54:39 AM 26.6786 -80.0464 336° Northwest 203 234 1,700  Level Miami Center
Fri 08:55:39 AM 26.7022 -80.0053 57° Northeast 217 250 4,500 2,950 Climbing Miami Center
Fri 08:56:39 AM 26.7558 -80.0486 324° Northwest 270 311 7,600 2,700 Climbing Miami Center
Fri 08:57:39 AM 26.7833 -80.1214 293° West 286 329 9,900 2,050 Climbing Miami Center
Fri 08:58:39 AM 26.8169 -80.2039 295° West 286 329 11,700 1,650 Climbing Miami Center
Fri 08:59:39 AM 26.8503 -80.2956 292° West 309 356 13,200 1,400 Climbing Miami Center
Fri 09:00:00 AM 26.9791 -80.3812 336° Northwest  Level FlightAware
Fri 09:00:39 AM 26.9322 -80.3633 324° Northwest 323 372 14,500  Level Miami Center
Fri 09:01:39 AM 27.0211 -80.4008 339° North 332 382 16,200 1,700 Climbing Miami Center
Fri 09:02:39 AM 27.1100 -80.4361 341° North 337 388 17,900 1,850 Climbing Miami Center
Fri 09:03:39 AM 27.1989 -80.4764 338° Northwest 337 388 19,900 1,950 Climbing Miami Center
Fri 09:04:39 AM 27.2856 -80.5117 340° North 337 388 21,800 1,700 Climbing Miami Center
Fri 09:05:39 AM 27.3744 -80.5497 339° North 337 388 23,300 1,500 Climbing Miami Center
Fri 09:06:39 AM 27.4653 -80.5878 340° North 337 388 24,800 1,500 Climbing Miami Center
Fri 09:07:39 AM 27.5583 -80.6258 340° North 348 400 26,300 1,500 Climbing Miami Center
Fri 09:08:39 AM 27.6469 -80.6639 339° North 348 400 27,800 1,500 Climbing Miami Center
Fri 09:09:39 AM 27.7419 -80.7047 339° North 353 406 29,300 1,500 Climbing Miami Center
Fri 09:10:39 AM 27.8308 -80.7428 339° North 345 397 30,800 1,500 Climbing Miami Center
Fri 09:11:39 AM 27.9258 -80.7789 341° North 351 404 32,300 1,500 Climbing Miami Center
Fri 09:12:39 AM 28.0122 -80.8172 339° North 345 397 33,800 1,500 Climbing Miami Center
Fri 09:13:39 AM 28.1011 -80.8533 340° North 345 397 35,300 1,450 Climbing Miami Center
Fri 09:14:39 AM 28.1836 -80.8892 339° North 335 386 36,700 1,300 Climbing Miami Center
Fri 09:15:39 AM 28.2661 -80.9203 342° North 323 372 37,900 1,100 Climbing Miami Center
Fri 09:16:39 AM 28.3486 -80.9586 338° Northwest 318 366 38,900 365 Climbing Miami Center
Fri 09:18:40 AM 28.5225 -81.0378 338° Northwest 342 394 39,000 33 Climbing Jacksonville Center
Fri 09:19:40 AM 28.6172 -81.0786 339° North 353 406 39,000  Level Jacksonville Center
Fri 09:20:40 AM 28.7094 -81.1172 340° North 353 406 39,000  Level Jacksonville Center
Fri 09:21:40 AM 28.8119 -81.1414 348° North 358 412 39,000  Level Jacksonville Center
Fri 09:22:40 AM 28.9125 -81.1681 347° North 363 418 39,000  Level Jacksonville Center
Fri 09:23:40 AM 29.0131 -81.1925 348° North 363 418 39,000  Level Jacksonville Center
Fri 09:24:40 AM 29.1156 -81.2144 349° North 368 423 39,000  Level Jacksonville Center
Fri 09:25:40 AM 29.2142 -81.2414 347° North 368 423 39,000  Level Jacksonville Center
Fri 09:26:40 AM 29.3147 -81.2658 348° North 368 423 39,000  Level Jacksonville Center
Fri 09:27:40 AM 29.4192 -81.2881 350° North 373 429 39,000  Level Jacksonville Center
Fri 09:28:40 AM 29.5261 -81.3150 348° North 363 418 39,000  Level Jacksonville Center
Fri 09:29:40 AM 29.6267 -81.3394 348° North 358 412 39,000  Level Jacksonville Center
Fri 09:30:40 AM 29.7269 -81.3619 349° North 358 412 39,000  Level Jacksonville Center
Fri 09:31:40 AM 29.8275 -81.3892 347° North 358 412 39,000  Level Jacksonville Center
Fri 09:32:40 AM 29.9217 -81.3972 356° North 363 418 39,000  Level Jacksonville Center
Fri 09:33:40 AM 30.0261 -81.4003 359° North 369 425 39,000  Level Jacksonville Center
Fri 09:34:40 AM 30.1325 -81.4011 360° North 369 425 39,000  Level Jacksonville Center
Fri 09:35:40 AM 30.2392 -81.4042 359° North 369 425 39,000  Level Jacksonville Center
Fri 09:36:40 AM 30.3433 -81.4075 358° North 369 425 39,000  Level Jacksonville Center
Fri 09:37:40 AM 30.4500 -81.4131 357° North 374 430 39,000  Level Jacksonville Center
Fri 09:38:40 AM 30.5567 -81.4161 359° North 374 430 39,000  Level Jacksonville Center
Fri 09:39:40 AM 30.6608 -81.4194 358° North 374 430 39,000  Level Jacksonville Center
Fri 09:40:40 AM 30.7694 -81.4203 360° North 379 436 39,000  Level Jacksonville Center
Fri 09:41:40 AM 30.8742 -81.4283 356° North 379 436 39,000  Level Jacksonville Center
Fri 09:42:40 AM 30.9806 -81.4314 359° North 385 443 39,000  Level Jacksonville Center
Fri 09:43:40 AM 31.0850 -81.4322 360° North 385 443 39,000  Level Jacksonville Center
Fri 09:44:40 AM 31.1914 -81.4356 358° North 385 443 39,000  Level Jacksonville Center
Fri 09:45:40 AM 31.3019 -81.4264 North 385 443 39,000  Level Jacksonville Center
Fri 09:46:40 AM 31.4206 -81.3928 14° North 391 450 39,000  Level Jacksonville Center
Fri 09:47:40 AM 31.5183 -81.3644 14° North 396 456 39,000  Level Jacksonville Center
Fri 09:48:40 AM 31.6392 -81.3358 11° North 396 456 39,000  Level Jacksonville Center
Fri 09:49:40 AM 31.7475 -81.3044 14° North 396 456 39,000  Level Jacksonville Center
Fri 09:50:40 AM 31.8472 -81.2783 13° North 396 456 39,000  Level Jacksonville Center
Fri 09:51:40 AM 31.9556 -81.2494 13° North 396 456 39,000  Level Jacksonville Center
Fri 09:52:40 AM 32.0658 -81.2206 13° North 396 456 39,000  Level Jacksonville Center
Fri 09:53:40 AM 32.1758 -81.1819 17° North 396 456 39,000  Level Jacksonville Center
Fri 09:54:40 AM 32.2772 -81.1086 31° Northeast 405 466 39,000  Level Jacksonville Center
Fri 09:55:40 AM 32.3886 -81.0278 31° Northeast 426 490 39,000  Level Jacksonville Center
Fri 09:56:40 AM 32.4775 -80.9619 32° Northeast 421 484 39,000  Level Jacksonville Center
Fri 09:57:40 AM 32.5786 -80.8883 32° Northeast 421 484 39,000  Level Jacksonville Center
Fri 09:58:40 AM 32.6797 -80.8144 32° Northeast 421 484 39,000  Level Jacksonville Center
Fri 09:59:40 AM 32.7786 -80.7431 31° Northeast 421 484 39,000  Level Jacksonville Center
Fri 10:00:40 AM 32.8797 -80.6689 32° Northeast 421 484 39,000  Level Jacksonville Center
Fri 10:01:40 AM 32.9808 -80.5969 31° Northeast 421 484 39,000  Level Jacksonville Center
Fri 10:02:40 AM 33.0839 -80.5250 30° Northeast 421 484 39,000  Level Jacksonville Center
Fri 10:03:40 AM 33.1867 -80.4503 31° Northeast 421 484 39,000  Level Jacksonville Center
Fri 10:04:40 AM 33.2875 -80.3731 33° Northeast 421 484 39,000  Level Jacksonville Center
Fri 10:05:40 AM 33.3903 -80.2956 32° Northeast 426 490 39,000  Level Jacksonville Center
Fri 10:06:40 AM 33.5011 -80.2125 32° Northeast 426 490 39,000  Level Jacksonville Center
Fri 10:07:40 AM 33.6019 -80.1372 32° Northeast 426 490 39,000  Level Jacksonville Center
Fri 10:08:40 AM 33.7025 -80.0617 32° Northeast 426 490 39,000  Level Jacksonville Center
Fri 10:09:40 AM 33.8031 -79.9858 32° Northeast 426 490 39,000  Level Jacksonville Center
Fri 10:10:40 AM 33.9033 -79.9075 33° Northeast 426 490 39,000  Level Jacksonville Center
Fri 10:11:40 AM 34.0058 -79.8314 32° Northeast 426 490 39,000  Level Jacksonville Center
Fri 10:12:40 AM 34.1022 -79.7603 31° Northeast 421 484 39,000  Level Jacksonville Center
Fri 10:15:05 AM 34.3361 -79.6058 29° Northeast 421 484 39,000  Level Washington Center
Fri 10:16:06 AM 34.4400 -79.5506 24° Northeast 410 472 39,000  Level Washington Center
Fri 10:17:07 AM 34.5419 -79.4975 23° Northeast 405 466 39,000  Level Washington Center
Fri 10:18:07 AM 34.6481 -79.4419 23° Northeast 405 466 39,000  Level Washington Center
Fri 10:19:05 AM 34.7500 -79.3886 23° Northeast 405 466 39,000  Level Washington Center
Fri 10:20:06 AM 34.8561 -79.3303 24° Northeast 405 466 39,000  Level Washington Center
Fri 10:21:06 AM 34.9600 -79.2769 23° Northeast 405 466 39,000  Level Washington Center
Fri 10:22:06 AM 35.0683 -79.2183 24° Northeast 405 466 39,000  Level Washington Center
Fri 10:23:07 AM 35.1722 -79.1644 23° Northeast 405 466 39,000  Level Washington Center
Fri 10:24:04 AM 35.2781 -79.1081 24° Northeast 405 466 39,000  Level Washington Center
Fri 10:25:05 AM 35.3947 -79.0444 24° Northeast 407 468 39,000 -590 Level Washington Center
Fri 10:26:06 AM 35.4986 -78.9878 24° Northeast 407 468 37,800 -1,339 Descending Washington Center
Fri 10:27:06 AM 35.6022 -78.9361 22° Northeast 402 463 36,300 -1,500 Descending Washington Center
Fri 10:28:06 AM 35.7042 -78.8789 25° Northeast 402 463 34,800 -1,462 Descending Washington Center
Fri 10:29:05 AM 35.8036 -78.8242 24° Northeast 402 463 33,400 -1,000 Descending Washington Center
Fri 10:31:06 AM 36.0089 -78.7119 24° Northeast 402 463 31,800 -1,022 Descending Washington Center
Fri 10:32:07 AM 36.1128 -78.6517 25° Northeast 402 463 30,300 -1,488 Descending Washington Center
Fri 10:33:07 AM 36.2144 -78.5939 25° Northeast 402 463 28,800 -1,424 Descending Washington Center
Fri 10:34:05 AM 36.3203 -78.5333 25° Northeast 402 463 27,500 -915 Descending Washington Center
Fri 10:35:05 AM 36.4197 -78.4753 25° Northeast 402 463 27,000 -248 Descending Washington Center
Fri 10:36:06 AM 36.5233 -78.4169 24° Northeast 402 463 27,000  Level Washington Center
Fri 10:37:07 AM 36.6311 -78.3561 24° Northeast 402 463 27,000  Level Washington Center
Fri 10:38:05 AM 36.7283 -78.3000 25° Northeast 407 468 27,000 -252 Level Washington Center
Fri 10:39:06 AM 36.8322 -78.2361 26° Northeast 407 468 26,500 -984 Descending Washington Center
Fri 10:40:07 AM 36.9356 -78.1747 25° Northeast 407 468 25,000 -1,475 Descending Washington Center
Fri 10:41:08 AM 37.0392 -78.1158 24° Northeast 402 463 23,500 -1,424 Descending Washington Center
Fri 10:42:05 AM 37.1364 -78.0592 25° Northeast 397 457 22,200 -763 Descending Washington Center
Fri 10:43:06 AM 37.2333 -78.0022 25° Northeast 387 445 22,000 -98 Descending Washington Center
Fri 10:44:07 AM 37.3283 -77.9450 26° Northeast 387 445 22,000  Level Washington Center
Fri 10:45:05 AM 37.4275 -77.8881 25° Northeast 387 445 22,000  Level Washington Center
Fri 10:46:05 AM 37.5289 -77.8283 25° Northeast 387 445 22,000  Level Washington Center
Fri 10:47:06 AM 37.6258 -77.7733 24° Northeast 387 445 22,000 -843 Level Washington Center
Fri 10:48:06 AM 37.7228 -77.7131 26° Northeast 387 445 20,300 -1,900 Descending Washington Center
Fri 10:49:06 AM 37.8156 -77.6606 24° Northeast 377 434 18,200 -2,118 Descending Washington Center
Fri 10:50:05 AM 37.9081 -77.6078 24° Northeast 366 421 16,100 -2,017 Descending Washington Center
Fri 10:51:05 AM 37.9925 -77.5547 26° Northeast 353 406 14,200 -1,983 Descending Washington Center
Fri 10:52:06 AM 38.0872 -77.5044 23° Northeast 333 383 12,100 -1,900 Descending Washington Center
Fri 10:53:05 AM 38.1628 -77.4589 25° Northeast 319 367 10,400 -1,109 Descending Washington Center
Fri 10:54:05 AM 38.2217 -77.4258 24° Northeast 302 348 9,900 -1,091 Descending Washington Center
Fri 10:55:06 AM 38.3058 -77.3778 24° Northeast 274 315 8,200 -1,377 Descending Washington Center
Fri 10:56:07 AM 38.3636 -77.4214 329° Northwest 225 259 7,100 -605 Descending Washington Center
Fri 10:57:05 AM 38.4150 -77.4678 325° Northwest 219 252 7,000 -50 Descending Washington Center
Fri 10:58:06 AM 38.4756 -77.4694 359° North 212 244 7,000  Level Washington Center
Fri 10:59:06 AM 38.5381 -77.4683 North 212 244 7,000 -446 Level Washington Center
Fri 11:00:07 AM 38.6028 -77.4672 North 218 251 6,100 -612 Descending Washington Center
Fri 11:00:44 AM 38.6333 -77.4667 North 203 234 6,000 -61 Descending Potomac TRACON
Fri 11:01:45 AM 38.7000 -77.4667 360° North 210 242 6,000 -446 Level Potomac TRACON
Fri 11:02:45 AM 38.7500 -77.4667 360° North 164 189 5,100 -1,000 Descending Potomac TRACON
Fri 11:03:45 AM 38.8000 -77.4667 360° North 173 199 4,000 -1,240 Descending Potomac TRACON
Fri 11:04:46 AM 38.8333 -77.4667 360° North 133 153 2,600 -1,041 Descending Potomac TRACON
Fri 11:05:46 AM 38.8667 -77.4667 360° North 122 140 1,900 -842 Descending Potomac TRACON
Fri 11:06:40 AM 38.9000 -77.4667 360° North 123 142 1,000 -1,000 Descending Potomac TRACON
Fri 11:08:00 AM 38.9333 -77.4500 North  Level FlightAware
Fri 11:15:00 AM 38.9474 -77.4599 North  Level Estimated
Fri 11:16:00 AM 38.9474 -77.4599 North  Level Estimated
Fri 11:17:00 AM 38.9474 -77.4599 North  Level Estimated
Fri 11:18:00 AM 38.9474 -77.4599 North  Level Estimated

Login

Don't have an account? Register now (free) for customized features, flight alerts, and more!